Time;durP1;ratioP1;P1;durP2;ratioP2;P2;SDS_P1;SDS_P2;PMS_P1;PMS_P2;Temp;Humidity;BMP_temperature;BMP_pressure;BME280_temperature;BME280_humidity;BME280_pressure;Samples;Min_cycle;Max_cycle;Signal;HPM_P1;HPM_P2
2022/08/07 00:00:05;;;;;;;;;;;;;;;21.62;54.90;102414.72;1034897;28;649;-66
2022/08/07 00:00:55;;;;;;;;;;;;;;;21.61;54.88;102407.56;1034755;28;697;-66
2022/08/07 00:01:45;;;;;;;;;;;;;;;21.60;55.04;102413.97;1034939;28;665;-66
2022/08/07 00:02:36;;;;;;;;;;;;;;;21.58;55.05;102405.09;1034748;28;669;-66
2022/08/07 00:03:27;;;;;;;;;;;;;;;21.61;54.98;102409.41;1035005;28;724;-66
2022/08/07 00:04:17;;;;;;;;;;;;;;;21.61;54.91;102410.28;1034720;28;650;-66
2022/08/07 00:05:08;;;;;;;;;;;;;;;21.62;54.85;102414.72;1034828;28;657;-66
2022/08/07 00:05:58;;;;;;;;;;;;;;;21.59;55.01;102412.25;1034820;28;653;-67
2022/08/07 00:06:48;;;;;;;;;;;;;;;21.58;55.16;102415.09;1034810;28;958;-66
2022/08/07 00:07:39;;;;;;;;;;;;;;;21.54;55.19;102409.06;1034884;28;707;-66
2022/08/07 00:08:29;;;;;;;;;;;;;;;21.56;55.04;102406.22;1034719;28;1088;-67
2022/08/07 00:09:20;;;;;;;;;;;;;;;21.56;54.92;102412.53;1032586;28;634;-66
2022/08/07 00:10:10;;;;;;;;;;;;;;;21.56;54.86;102409.81;1032692;28;662;-66
2022/08/07 00:11:01;;;;;;;;;;;;;;;21.56;55.11;102411.66;1032479;28;844;-66
2022/08/07 00:11:51;;;;;;;;;;;;;;;21.55;55.14;102405.38;1032609;28;643;-66
2022/08/07 00:12:42;;;;;;;;;;;;;;;21.55;55.04;102408.09;1033365;28;614;-67
2022/08/07 00:13:33;;;;;;;;;;;;;;;21.55;55.11;102405.38;1033409;28;665;-67
2022/08/07 00:14:25;;;;;;;;;;;;;;;21.55;54.88;102405.38;1033141;28;570;-66
2022/08/07 00:15:16;;;;;;;;;;;;;;;21.56;54.90;102401.66;1033595;28;693;-66
2022/08/07 00:16:06;;;;;;;;;;;;;;;21.54;54.87;102403.66;1035640;28;1269;-66
2022/08/07 00:16:56;;;;;;;;;;;;;;;21.52;55.07;102396.63;1037691;28;704;-66
2022/08/07 00:17:47;;;;;;;;;;;;;;;21.52;54.97;102402.06;1037260;28;813;-66
2022/08/07 00:18:37;;;;;;;;;;;;;;;21.49;55.19;102403.22;1038013;28;728;-67
2022/08/07 00:19:30;;;;;;;;;;;;;;;21.50;55.05;102402.19;1037421;28;645;-67
2022/08/07 00:20:20;;;;;;;;;;;;;;;21.49;55.28;102403.22;1037166;28;665;-67
2022/08/07 00:21:10;;;;;;;;;;;;;;;21.48;55.28;102398.78;1037656;28;708;-67
2022/08/07 00:22:01;;;;;;;;;;;;;;;21.47;55.20;102391.63;1037738;28;757;-67
2022/08/07 00:22:51;;;;;;;;;;;;;;;21.46;55.18;102398.03;1037739;28;696;-68
2022/08/07 00:23:42;;;;;;;;;;;;;;;21.48;55.06;102399.63;1037692;28;665;-67
2022/08/07 00:24:32;;;;;;;;;;;;;;;21.45;55.27;102396.31;1037665;28;708;-67
2022/08/07 00:25:23;;;;;;;;;;;;;;;21.46;55.26;102396.19;1037740;28;695;-67
2022/08/07 00:26:13;;;;;;;;;;;;;;;21.46;55.07;102389.91;1037062;28;682;-67
2022/08/07 00:27:04;;;;;;;;;;;;;;;21.47;55.07;102392.50;1037664;28;751;-67
2022/08/07 00:27:54;;;;;;;;;;;;;;;21.43;55.22;102388.31;1037642;28;563;-67
2022/08/07 00:28:45;;;;;;;;;;;;;;;21.44;55.21;102391.88;1037688;28;647;-67
2022/08/07 00:29:35;;;;;;;;;;;;;;;21.43;55.22;102390.16;1037763;28;646;-68
2022/08/07 00:30:26;;;;;;;;;;;;;;;21.44;55.17;102395.47;1037615;28;670;-67
2022/08/07 00:31:16;;;;;;;;;;;;;;;21.42;55.11;102393.88;1037740;28;684;-67
2022/08/07 00:32:06;;;;;;;;;;;;;;;21.40;55.31;102395.84;1037220;28;623;-68
2022/08/07 00:32:57;;;;;;;;;;;;;;;21.41;55.36;102387.59;1037666;28;697;-67
2022/08/07 00:33:47;;;;;;;;;;;;;;;21.41;55.23;102393.00;1037581;28;661;-67
2022/08/07 00:34:38;;;;;;;;;;;;;;;21.41;55.14;102389.44;1037871;28;725;-68
2022/08/07 00:35:28;;;;;;;;;;;;;;;21.41;55.18;102389.44;1037730;28;1961;-67
2022/08/07 00:36:19;;;;;;;;;;;;;;;21.42;55.16;102388.44;1037592;28;633;-68
2022/08/07 00:37:09;;;;;;;;;;;;;;;21.40;55.29;102388.56;1037713;28;760;-67
2022/08/07 00:37:59;;;;;;;;;;;;;;;21.39;55.41;102383.28;1037627;28;631;-67
2022/08/07 00:38:50;;;;;;;;;;;;;;;21.34;55.34;102377.38;1037664;28;610;-67
2022/08/07 00:39:40;;;;;;;;;;;;;;;21.35;55.28;102392.66;1037322;28;795;-67
2022/08/07 00:40:31;;;;;;;;;;;;;;;21.35;55.58;102390.81;1037128;28;708;-67
2022/08/07 00:41:21;;;;;;;;;;;;;;;21.37;55.29;102379.84;1037942;28;637;-67
2022/08/07 00:42:12;;;;;;;;;;;;;;;21.37;55.11;102385.25;1037175;28;787;-67
2022/08/07 00:43:02;;;;;;;;;;;;;;;21.37;55.38;102386.13;1037259;28;721;-67
2022/08/07 00:43:53;;;;;;;;;;;;;;;21.36;55.21;102381.69;1037629;28;701;-67
2022/08/07 00:44:43;;;;;;;;;;;;;;;21.34;55.45;102385.53;1037608;28;657;-66
2022/08/07 00:45:33;;;;;;;;;;;;;;;21.35;55.34;102374.53;1037606;28;653;-67
2022/08/07 00:46:25;;;;;;;;;;;;;;;21.35;55.29;102379.97;1037094;28;634;-67
2022/08/07 00:47:15;;;;;;;;;;;;;;;21.31;55.36;102375.81;1037062;28;717;-67
2022/08/07 00:48:05;;;;;;;;;;;;;;;21.31;55.23;102380.38;1037594;28;638;-66
2022/08/07 00:49:00;;;;;;;;;;;;;;;21.31;55.38;102383.97;1037621;28;646;-67
2022/08/07 00:49:50;;;;;;;;;;;;;;;21.31;55.35;102381.25;1036950;28;724;-67
2022/08/07 00:50:41;;;;;;;;;;;;;;;21.31;55.51;102380.38;1037643;28;913;-66
2022/08/07 00:51:31;;;;;;;;;;;;;;;21.30;55.38;102382.25;1037799;28;706;-67
2022/08/07 00:52:22;;;;;;;;;;;;;;;21.30;55.35;102386.81;1037275;28;638;-67
2022/08/07 00:53:12;;;;;;;;;;;;;;;21.28;55.58;102380.66;1037245;28;654;-67
2022/08/07 00:54:02;;;;;;;;;;;;;;;21.29;55.36;102372.38;1036962;28;669;-67
2022/08/07 00:54:53;;;;;;;;;;;;;;;21.30;55.49;102379.53;1037066;28;645;-67
2022/08/07 00:55:43;;;;;;;;;;;;;;;21.32;55.24;102376.66;1037571;28;1965;-67
2022/08/07 00:56:34;;;;;;;;;;;;;;;21.31;55.35;102378.53;1037537;28;673;-67
2022/08/07 00:57:24;;;;;;;;;;;;;;;21.31;55.27;102375.81;1037565;28;638;-67
2022/08/07 00:58:15;;;;;;;;;;;;;;;21.30;55.54;102378.66;1037860;28;696;-67
2022/08/07 00:59:05;;;;;;;;;;;;;;;21.28;55.38;102375.22;1037757;28;692;-67
2022/08/07 00:59:56;;;;;;;;;;;;;;;21.27;55.36;102374.34;1037035;28;601;-67
2022/08/07 01:00:47;;;;;;;;;;;;;;;21.29;55.22;102369.66;1037551;28;693;-67
2022/08/07 01:01:37;;;;;;;;;;;;;;;21.30;55.42;102373.25;1036950;28;736;-66
2022/08/07 01:02:28;;;;;;;;;;;;;;;21.26;55.05;102369.94;1037500;28;626;-67
2022/08/07 01:03:18;;;;;;;;;;;;;;;21.25;55.46;102372.78;1036987;28;642;-67
2022/08/07 01:04:09;;;;;;;;;;;;;;;21.25;55.31;102379.06;1037567;28;685;-67
2022/08/07 01:04:59;;;;;;;;;;;;;;;21.24;55.45;102376.47;1037685;28;660;-67
2022/08/07 01:05:49;;;;;;;;;;;;;;;21.22;55.43;102373.88;1037807;28;783;-67
2022/08/07 01:06:40;;;;;;;;;;;;;;;21.23;55.42;102372.91;1037225;28;669;-67
2022/08/07 01:07:30;;;;;;;;;;;;;;;21.23;55.25;102374.75;1036913;28;691;-67
2022/08/07 01:08:21;;;;;;;;;;;;;;;21.21;55.63;102374.00;1037272;28;1222;-66
2022/08/07 01:09:11;;;;;;;;;;;;;;;21.23;55.54;102375.59;1037087;28;665;-67
2022/08/07 01:10:01;;;;;;;;;;;;;;;21.21;55.47;102366.75;1035723;28;645;-67
2022/08/07 01:10:52;;;;;;;;;;;;;;;21.22;55.67;102375.72;1036207;28;717;-67
2022/08/07 01:11:42;;;;;;;;;;;;;;;21.22;55.44;102375.72;1037148;28;697;-67
2022/08/07 01:12:33;;;;;;;;;;;;;;;21.24;55.40;102373.75;1037545;28;614;-67
2022/08/07 01:13:23;;;;;;;;;;;;;;;21.24;55.34;102373.75;1036905;28;712;-67
2022/08/07 01:14:14;;;;;;;;;;;;;;;21.20;55.46;102375.00;1036934;28;685;-67
2022/08/07 01:15:04;;;;;;;;;;;;;;;21.18;55.57;102372.38;1037020;28;899;-67
2022/08/07 01:15:54;;;;;;;;;;;;;;;21.16;55.53;102377.06;1035221;28;1958;-67
2022/08/07 01:16:45;;;;;;;;;;;;;;;21.16;55.65;102374.38;1034581;28;641;-67
2022/08/07 01:17:35;;;;;;;;;;;;;;;21.19;55.56;102379.53;1034624;28;682;-67
2022/08/07 01:18:28;;;;;;;;;;;;;;;21.18;55.58;102375.09;1034182;28;684;-67
2022/08/07 01:19:18;;;;;;;;;;;;;;;21.18;55.66;102368.81;1033721;28;697;-67
2022/08/07 01:20:08;;;;;;;;;;;;;;;21.15;55.56;102372.66;1033992;28;618;-67
2022/08/07 01:20:59;;;;;;;;;;;;;;;21.18;55.33;102374.25;1034576;28;728;-67
2022/08/07 01:21:49;;;;;;;;;;;;;;;21.19;55.42;102375.97;1034584;28;712;-68
2022/08/07 01:22:40;;;;;;;;;;;;;;;21.18;55.72;102374.25;1034542;28;640;-67
2022/08/07 01:23:30;;;;;;;;;;;;;;;21.17;55.61;102367.09;1034435;28;696;-66
2022/08/07 01:24:21;;;;;;;;;;;;;;;21.13;55.61;102375.50;1034644;28;661;-67
2022/08/07 01:25:11;;;;;;;;;;;;;;;21.14;55.62;102373.63;1034536;28;633;-66
2022/08/07 01:26:01;;;;;;;;;;;;;;;21.15;55.71;102369.94;1034564;28;709;-67
2022/08/07 01:26:52;;;;;;;;;;;;;;;21.13;55.54;102370.09;1034529;28;700;-67
2022/08/07 01:27:42;;;;;;;;;;;;;;;21.13;55.86;102372.81;1034577;28;683;-67
2022/08/07 01:28:33;;;;;;;;;;;;;;;21.15;55.52;102372.66;1034510;28;606;-67
2022/08/07 01:29:23;;;;;;;;;;;;;;;21.11;55.47;102372.06;1034393;28;633;-67
2022/08/07 01:30:14;;;;;;;;;;;;;;;21.11;55.55;102371.22;1034109;28;635;-67
2022/08/07 01:31:04;;;;;;;;;;;;;;;21.09;55.78;102370.47;1034446;28;724;-67
2022/08/07 01:31:54;;;;;;;;;;;;;;;21.08;55.54;102372.31;1034358;28;633;-67
2022/08/07 01:32:45;;;;;;;;;;;;;;;21.11;55.45;102363.09;1033566;28;622;-67
2022/08/07 01:33:35;;;;;;;;;;;;;;;21.10;55.57;102373.06;1033459;28;669;-67
2022/08/07 01:34:26;;;;;;;;;;;;;;;21.11;55.64;102369.38;1034470;28;641;-67
2022/08/07 01:35:16;;;;;;;;;;;;;;;21.07;55.83;102373.31;1034528;28;732;-67
2022/08/07 01:36:08;;;;;;;;;;;;;;;21.07;55.67;102367.91;1034600;28;953;-67
2022/08/07 01:36:58;;;;;;;;;;;;;;;21.09;55.36;102365.91;1034590;28;681;-67
2022/08/07 01:37:49;;;;;;;;;;;;;;;21.07;55.89;102362.47;1034651;28;626;-67
2022/08/07 01:38:39;;;;;;;;;;;;;;;21.07;55.60;102367.03;1034317;28;693;-66
2022/08/07 01:39:30;;;;;;;;;;;;;;;21.07;55.65;102367.03;1034513;28;649;-67
2022/08/07 01:40:20;;;;;;;;;;;;;;;21.06;55.80;102365.31;1034395;28;657;-67
2022/08/07 01:41:11;;;;;;;;;;;;;;;21.04;55.75;102364.56;1034521;28;633;-67
2022/08/07 01:42:01;;;;;;;;;;;;;;;21.01;55.87;102365.69;1034468;28;681;-67
2022/08/07 01:42:52;;;;;;;;;;;;;;;21.02;55.90;102364.72;1034568;28;649;-67
2022/08/07 01:43:42;;;;;;;;;;;;;;;21.03;55.75;102365.56;1034370;28;708;-67
2022/08/07 01:44:32;;;;;;;;;;;;;;;21.06;55.92;102362.59;1034195;28;677;-67
2022/08/07 01:45:23;;;;;;;;;;;;;;;21.03;55.90;102366.44;1034393;28;630;-67
2022/08/07 01:46:13;;;;;;;;;;;;;;;21.02;55.95;102359.28;1034528;28;629;-67
2022/08/07 01:47:04;;;;;;;;;;;;;;;21.02;55.63;102364.72;1034449;28;637;-67
2022/08/07 01:47:54;;;;;;;;;;;;;;;21.02;55.89;102361.13;1034362;28;708;-67
2022/08/07 01:48:45;;;;;;;;;;;;;;;21.02;55.81;102358.44;1034093;28;644;-66
2022/08/07 01:49:35;;;;;;;;;;;;;;;20.98;56.24;102352.41;1032970;28;712;-67
2022/08/07 01:50:26;;;;;;;;;;;;;;;21.01;55.84;102360.28;1033336;28;626;-67
2022/08/07 01:51:16;;;;;;;;;;;;;;;21.02;55.79;102359.28;1034074;28;661;-66
2022/08/07 01:52:06;;;;;;;;;;;;;;;20.98;55.89;102360.53;1034215;28;622;-66
2022/08/07 01:52:57;;;;;;;;;;;;;;;20.91;56.04;102356.63;1033578;28;791;-66
2022/08/07 01:53:47;;;;;;;;;;;;;;;20.93;55.77;102354.66;1033420;28;655;-67
2022/08/07 01:54:38;;;;;;;;;;;;;;;20.96;55.67;102356.25;1034414;28;665;-66
2022/08/07 01:55:28;;;;;;;;;;;;;;;20.97;56.04;102361.53;1034248;28;1894;-66
2022/08/07 01:56:19;;;;;;;;;;;;;;;20.95;55.82;102352.69;1034474;28;632;-66
2022/08/07 01:57:09;;;;;;;;;;;;;;;20.94;55.74;102350.09;1034362;28;712;-67
2022/08/07 01:57:59;;;;;;;;;;;;;;;20.94;55.80;102350.97;1034598;28;610;-66
2022/08/07 01:58:50;;;;;;;;;;;;;;;20.95;55.61;102351.81;1034402;28;625;-66
2022/08/07 01:59:42;;;;;;;;;;;;;;;20.94;55.60;102348.25;1034309;28;657;-66
2022/08/07 02:00:32;;;;;;;;;;;;;;;20.96;56.00;102348.13;1033768;28;665;-67
2022/08/07 02:01:23;;;;;;;;;;;;;;;20.97;56.07;102349.81;1034094;28;641;-67
2022/08/07 02:02:14;;;;;;;;;;;;;;;20.97;55.67;102345.25;1033516;28;626;-66
2022/08/07 02:03:04;;;;;;;;;;;;;;;20.98;55.84;102351.53;1033827;28;656;-66
2022/08/07 02:03:55;;;;;;;;;;;;;;;20.93;56.02;102351.09;1034151;28;633;-66
2022/08/07 02:04:45;;;;;;;;;;;;;;;20.90;56.11;102348.63;1032913;28;724;-67
2022/08/07 02:05:35;;;;;;;;;;;;;;;20.93;56.00;102356.50;1032607;28;659;-66
2022/08/07 02:06:26;;;;;;;;;;;;;;;20.93;55.95;102351.09;1034342;28;681;-66
2022/08/07 02:07:17;;;;;;;;;;;;;;;20.94;55.44;102348.25;1034462;28;622;-66
2022/08/07 02:08:07;;;;;;;;;;;;;;;20.92;55.92;102346.66;1034368;28;634;-67
2022/08/07 02:08:58;;;;;;;;;;;;;;;20.91;56.10;102347.66;1034243;28;657;-66
2022/08/07 02:09:49;;;;;;;;;;;;;;;20.89;55.93;102346.91;1034288;28;649;-66
2022/08/07 02:10:39;;;;;;;;;;;;;;;20.89;55.67;102355.03;1034156;28;649;-66
2022/08/07 02:11:30;;;;;;;;;;;;;;;20.88;55.81;102346.06;1034441;28;654;-66
2022/08/07 02:12:20;;;;;;;;;;;;;;;20.88;55.92;102348.75;1034310;28;676;-66
2022/08/07 02:13:10;;;;;;;;;;;;;;;20.89;56.06;102345.06;1034506;28;684;-66
2022/08/07 02:14:01;;;;;;;;;;;;;;;20.93;56.02;102348.38;1034027;28;642;-66
2022/08/07 02:14:51;;;;;;;;;;;;;;;20.87;55.79;102347.03;1033443;28;728;-66
2022/08/07 02:15:42;;;;;;;;;;;;;;;20.87;55.97;102349.75;1033180;28;1972;-66
2022/08/07 02:16:32;;;;;;;;;;;;;;;20.85;56.13;102346.31;1029759;28;716;-67
2022/08/07 02:17:23;;;;;;;;;;;;;;;20.85;55.93;102343.59;1029758;28;662;-66
2022/08/07 02:18:13;;;;;;;;;;;;;;;20.83;55.78;102342.00;1029669;28;879;-67
2022/08/07 02:19:03;;;;;;;;;;;;;;;20.83;55.98;102345.56;1029819;28;686;-66
2022/08/07 02:19:54;;;;;;;;;;;;;;;20.81;56.31;102350.25;1029770;28;634;-66
2022/08/07 02:20:44;;;;;;;;;;;;;;;20.79;55.85;102347.69;1029660;28;689;-66
2022/08/07 02:21:35;;;;;;;;;;;;;;;20.83;56.08;102348.28;1029724;28;645;-67
2022/08/07 02:22:25;;;;;;;;;;;;;;;20.83;56.23;102353.69;1029686;28;655;-66
2022/08/07 02:23:16;;;;;;;;;;;;;;;20.81;55.78;102350.25;1028583;28;674;-66
2022/08/07 02:24:06;;;;;;;;;;;;;;;20.80;55.86;102343.13;1029447;28;725;-68
2022/08/07 02:24:57;;;;;;;;;;;;;;;20.78;56.34;102345.13;1030105;28;650;-66
2022/08/07 02:25:47;;;;;;;;;;;;;;;20.81;56.13;102347.53;1028747;28;729;-66
2022/08/07 02:26:37;;;;;;;;;;;;;;;20.86;55.98;102342.59;1029655;28;760;-66
2022/08/07 02:27:28;;;;;;;;;;;;;;;20.82;56.15;102346.56;1029651;28;646;-66
2022/08/07 02:28:18;;;;;;;;;;;;;;;20.80;55.82;102345.81;1029146;28;654;-67
2022/08/07 02:29:09;;;;;;;;;;;;;;;20.76;56.18;102350.66;1029726;28;658;-67
2022/08/07 02:29:59;;;;;;;;;;;;;;;20.78;56.00;102345.13;1029630;28;661;-66
2022/08/07 02:30:50;;;;;;;;;;;;;;;20.76;55.86;102342.53;1029594;28;658;-67
2022/08/07 02:31:40;;;;;;;;;;;;;;;20.77;56.24;102346.97;1029579;28;655;-67
2022/08/07 02:32:31;;;;;;;;;;;;;;;20.76;56.15;102349.81;1029754;28;630;-67
2022/08/07 02:33:21;;;;;;;;;;;;;;;20.76;55.84;102347.09;1029811;28;701;-67
2022/08/07 02:34:12;;;;;;;;;;;;;;;20.78;55.79;102345.13;1029696;28;677;-67
2022/08/07 02:35:03;;;;;;;;;;;;;;;20.77;55.88;102351.53;1029597;28;670;-67
2022/08/07 02:35:54;;;;;;;;;;;;;;;20.78;55.92;102342.41;1028416;28;1891;-67
2022/08/07 02:36:44;;;;;;;;;;;;;;;20.69;56.32;102345.88;1029677;28;700;-67
2022/08/07 02:37:35;;;;;;;;;;;;;;;20.74;55.94;102338.25;1029684;28;615;-67
2022/08/07 02:38:25;;;;;;;;;;;;;;;20.74;56.09;102344.50;1029614;28;673;-67
2022/08/07 02:39:15;;;;;;;;;;;;;;;20.76;55.86;102341.69;1029602;28;671;-67
2022/08/07 02:40:06;;;;;;;;;;;;;;;20.76;56.03;102341.69;1029686;28;701;-66
2022/08/07 02:40:56;;;;;;;;;;;;;;;20.73;56.23;102336.50;1029575;28;669;-66
2022/08/07 02:41:47;;;;;;;;;;;;;;;20.74;56.28;102338.25;1029645;28;646;-66
2022/08/07 02:42:37;;;;;;;;;;;;;;;20.73;56.24;102336.50;1028630;28;826;-66
2022/08/07 02:43:28;;;;;;;;;;;;;;;20.75;56.16;102338.09;1029624;28;634;-66
2022/08/07 02:44:18;;;;;;;;;;;;;;;20.66;56.03;102336.16;1029668;28;697;-66
2022/08/07 02:45:09;;;;;;;;;;;;;;;20.68;55.86;102341.44;1029652;28;723;-67
2022/08/07 02:45:59;;;;;;;;;;;;;;;20.69;55.97;102343.16;1029611;28;661;-66
2022/08/07 02:46:51;;;;;;;;;;;;;;;20.72;55.84;102342.91;1029758;28;772;-66
2022/08/07 02:47:41;;;;;;;;;;;;;;;20.70;56.33;102342.19;1028568;28;627;-66
2022/08/07 02:48:32;;;;;;;;;;;;;;;20.69;55.97;102341.31;1029639;28;935;-66
2022/08/07 02:49:22;;;;;;;;;;;;;;;20.66;56.04;102335.28;1029236;28;673;-66
2022/08/07 02:50:13;;;;;;;;;;;;;;;20.64;56.10;102332.72;1028835;28;650;-66
2022/08/07 02:51:03;;;;;;;;;;;;;;;20.62;56.39;102339.25;1028739;28;666;-66
2022/08/07 02:51:54;;;;;;;;;;;;;;;20.62;56.26;102336.53;1029617;28;650;-66
2022/08/07 02:52:44;;;;;;;;;;;;;;;20.63;56.25;102341.81;1029528;28;689;-66
2022/08/07 02:53:35;;;;;;;;;;;;;;;20.64;56.49;102334.56;1029582;28;662;-66
2022/08/07 02:54:25;;;;;;;;;;;;;;;20.65;56.09;102339.00;1029643;28;674;-66
2022/08/07 02:55:16;;;;;;;;;;;;;;;20.62;55.97;102336.53;1029705;28;681;-66
2022/08/07 02:56:06;;;;;;;;;;;;;;;20.62;56.06;102336.53;1029613;28;755;-66
2022/08/07 02:56:56;;;;;;;;;;;;;;;20.64;56.17;102339.97;1029150;28;729;-66
2022/08/07 02:57:47;;;;;;;;;;;;;;;20.60;56.13;102336.66;1029510;28;641;-66
2022/08/07 02:58:37;;;;;;;;;;;;;;;20.57;56.40;102345.06;1029218;28;690;-66
2022/08/07 02:59:28;;;;;;;;;;;;;;;20.61;56.11;102342.94;1028777;28;694;-67
2022/08/07 03:00:18;;;;;;;;;;;;;;;20.59;56.17;102343.09;1028721;28;630;-66
2022/08/07 03:01:09;;;;;;;;;;;;;;;20.58;56.42;102343.22;1029678;28;650;-66
2022/08/07 03:01:59;;;;;;;;;;;;;;;20.56;56.40;102345.19;1029469;28;691;-66
2022/08/07 03:02:51;;;;;;;;;;;;;;;20.57;56.19;102342.38;1029374;28;615;-66
2022/08/07 03:03:42;;;;;;;;;;;;;;;20.60;56.18;102341.25;1028236;28;642;-67
2022/08/07 03:04:32;;;;;;;;;;;;;;;20.61;56.37;102340.22;1029604;28;1053;-67
2022/08/07 03:05:23;;;;;;;;;;;;;;;20.56;56.02;102334.34;1029694;28;681;-66
2022/08/07 03:06:13;;;;;;;;;;;;;;;20.57;55.97;102344.22;1029573;28;663;-66
2022/08/07 03:07:03;;;;;;;;;;;;;;;20.55;56.60;102341.63;1029506;28;658;-66
2022/08/07 03:07:54;;;;;;;;;;;;;;;20.58;56.27;102338.66;1029583;28;743;-66
2022/08/07 03:08:44;;;;;;;;;;;;;;;20.59;56.04;102340.38;1029519;28;650;-66
2022/08/07 03:09:35;;;;;;;;;;;;;;;20.57;56.46;102336.09;1029611;28;638;-66
2022/08/07 03:10:25;;;;;;;;;;;;;;;20.58;56.31;102344.09;1029245;28;661;-66
2022/08/07 03:11:16;;;;;;;;;;;;;;;20.57;56.44;102341.50;1028773;28;697;-66
2022/08/07 03:12:06;;;;;;;;;;;;;;;20.56;56.19;102339.78;1029684;28;665;-66
2022/08/07 03:12:56;;;;;;;;;;;;;;;20.57;56.05;102342.38;1029513;28;678;-66
2022/08/07 03:13:47;;;;;;;;;;;;;;;20.58;55.91;102340.50;1029522;28;654;-66
2022/08/07 03:14:38;;;;;;;;;;;;;;;20.58;56.26;102337.81;1029495;28;698;-66
2022/08/07 03:15:28;;;;;;;;;;;;;;;20.58;56.22;102337.81;1028543;28;729;-66
2022/08/07 03:16:19;;;;;;;;;;;;;;;20.59;56.14;102331.41;1036421;28;682;-66
2022/08/07 03:17:10;;;;;;;;;;;;;;;20.61;56.36;102334.81;1036449;28;606;-66
2022/08/07 03:18:00;;;;;;;;;;;;;;;20.58;55.91;102335.09;1035642;28;686;-66
2022/08/07 03:18:50;;;;;;;;;;;;;;;20.57;56.10;102342.38;1036775;28;662;-66
2022/08/07 03:19:41;;;;;;;;;;;;;;;20.56;56.21;102328.94;1037067;28;717;-66
2022/08/07 03:20:31;;;;;;;;;;;;;;;20.55;56.35;102329.94;1036573;28;645;-66
2022/08/07 03:21:22;;;;;;;;;;;;;;;20.54;56.12;102334.50;1036456;28;661;-66
2022/08/07 03:22:12;;;;;;;;;;;;;;;20.56;56.39;102334.34;1036537;28;693;-66
2022/08/07 03:23:02;;;;;;;;;;;;;;;20.58;56.22;102335.09;1035539;28;729;-66
2022/08/07 03:23:53;;;;;;;;;;;;;;;20.56;55.75;102335.22;1036603;28;693;-66
2022/08/07 03:24:43;;;;;;;;;;;;;;;20.56;56.34;102334.34;1036487;28;767;-67
2022/08/07 03:25:34;;;;;;;;;;;;;;;20.56;55.89;102334.34;1035550;28;643;-66
2022/08/07 03:26:24;;;;;;;;;;;;;;;20.55;56.36;102327.22;1036843;28;657;-67
2022/08/07 03:27:15;;;;;;;;;;;;;;;20.54;56.26;102328.22;1035397;28;611;-66
2022/08/07 03:28:05;;;;;;;;;;;;;;;20.49;56.01;102333.13;1035449;28;673;-66
2022/08/07 03:28:56;;;;;;;;;;;;;;;20.50;55.97;102326.75;1036461;28;643;-66
2022/08/07 03:29:46;;;;;;;;;;;;;;;20.52;55.99;102330.19;1036547;28;681;-67
2022/08/07 03:30:36;;;;;;;;;;;;;;;20.54;56.25;102325.50;1036600;28;689;-66
2022/08/07 03:31:27;;;;;;;;;;;;;;;20.55;55.77;102324.50;1036441;28;619;-67
2022/08/07 03:32:17;;;;;;;;;;;;;;;20.58;55.74;102326.97;1036519;28;653;-67
2022/08/07 03:33:08;;;;;;;;;;;;;;;20.57;55.76;102330.66;1036368;28;657;-66
2022/08/07 03:33:58;;;;;;;;;;;;;;;20.54;55.82;102326.38;1036433;28;650;-67
2022/08/07 03:34:48;;;;;;;;;;;;;;;20.55;55.90;102332.63;1036519;28;726;-67
2022/08/07 03:35:39;;;;;;;;;;;;;;;20.57;55.90;102327.97;1036412;28;1891;-67
2022/08/07 03:36:29;;;;;;;;;;;;;;;20.52;55.92;102330.19;1036557;28;654;-67
2022/08/07 03:37:20;;;;;;;;;;;;;;;20.52;55.97;102325.63;1036369;28;666;-66
2022/08/07 03:38:10;;;;;;;;;;;;;;;20.53;56.10;102326.50;1036459;28;741;-67
2022/08/07 03:39:02;;;;;;;;;;;;;;;20.50;55.99;102326.75;1036578;28;685;-67
2022/08/07 03:39:52;;;;;;;;;;;;;;;20.47;56.35;102322.44;1035445;28;713;-67
2022/08/07 03:40:43;;;;;;;;;;;;;;;20.49;56.02;102323.16;1036019;28;584;-67
2022/08/07 03:41:33;;;;;;;;;;;;;;;20.53;55.94;102324.63;1036538;28;657;-67
2022/08/07 03:42:24;;;;;;;;;;;;;;;20.43;56.09;102324.53;1036568;28;712;-67
2022/08/07 03:43:14;;;;;;;;;;;;;;;20.48;56.18;102329.56;1036522;28;621;-67
2022/08/07 03:44:04;;;;;;;;;;;;;;;20.49;56.05;102327.72;1036538;28;669;-66
2022/08/07 03:44:55;;;;;;;;;;;;;;;20.47;56.38;102327.00;1035375;28;626;-67
2022/08/07 03:45:45;;;;;;;;;;;;;;;20.51;55.84;102325.75;1035442;28;717;-67
2022/08/07 03:46:36;;;;;;;;;;;;;;;20.49;55.78;102328.59;1036429;28;652;-67
2022/08/07 03:47:27;;;;;;;;;;;;;;;20.45;55.73;102322.56;1036497;28;744;-67
2022/08/07 03:48:17;;;;;;;;;;;;;;;20.46;55.73;102328.84;1036490;28;716;-66
2022/08/07 03:49:08;;;;;;;;;;;;;;;20.40;56.51;102324.81;1036525;28;729;-67
2022/08/07 03:49:58;;;;;;;;;;;;;;;20.43;56.35;102323.66;1035418;28;635;-67
2022/08/07 03:50:49;;;;;;;;;;;;;;;20.44;56.15;102320.84;1036518;28;630;-67
2022/08/07 03:51:39;;;;;;;;;;;;;;;20.49;56.12;102323.16;1035467;28;635;-67
2022/08/07 03:52:30;;;;;;;;;;;;;;;20.48;55.85;102321.44;1036419;28;657;-67
2022/08/07 03:53:20;;;;;;;;;;;;;;;20.47;55.94;102324.28;1036501;28;701;-67
2022/08/07 03:54:11;;;;;;;;;;;;;;;20.45;56.53;102327.13;1036384;28;618;-67
2022/08/07 03:55:01;;;;;;;;;;;;;;;20.44;56.24;102320.84;1036096;28;745;-67
2022/08/07 03:55:52;;;;;;;;;;;;;;;20.44;55.92;102320.84;1036346;28;1898;-67
2022/08/07 03:56:42;;;;;;;;;;;;;;;20.44;56.01;102326.25;1036560;28;704;-67
2022/08/07 03:57:33;;;;;;;;;;;;;;;20.43;55.96;102320.97;1036390;28;665;-67
2022/08/07 03:58:23;;;;;;;;;;;;;;;20.41;55.99;102321.13;1036364;28;692;-67
2022/08/07 03:59:13;;;;;;;;;;;;;;;20.42;55.82;102322.81;1036542;28;712;-67
2022/08/07 04:00:04;;;;;;;;;;;;;;;20.44;56.09;102330.81;1036401;28;645;-67
2022/08/07 04:00:54;;;;;;;;;;;;;;;20.40;56.41;102313.97;1036592;28;834;-67
2022/08/07 04:01:45;;;;;;;;;;;;;;;20.38;56.02;102326.78;1036435;28;666;-67
2022/08/07 04:02:35;;;;;;;;;;;;;;;20.38;56.10;102321.38;1035298;28;677;-67
2022/08/07 04:03:26;;;;;;;;;;;;;;;20.40;56.12;102319.41;1036367;28;783;-67
2022/08/07 04:04:16;;;;;;;;;;;;;;;20.43;56.10;102324.53;1036382;28;630;-67
2022/08/07 04:05:06;;;;;;;;;;;;;;;20.38;56.45;102321.38;1036466;28;665;-67
2022/08/07 04:05:57;;;;;;;;;;;;;;;20.38;56.33;102329.50;1036376;28;661;-67
2022/08/07 04:06:47;;;;;;;;;;;;;;;20.40;55.92;102323.94;1035675;28;668;-67
2022/08/07 04:07:38;;;;;;;;;;;;;;;20.37;56.08;102325.06;1036732;28;642;-67
2022/08/07 04:08:28;;;;;;;;;;;;;;;20.36;56.02;102328.75;1031915;28;1291;-67
2022/08/07 04:09:19;;;;;;;;;;;;;;;20.38;56.39;102325.91;1033198;28;629;-67
2022/08/07 04:10:09;;;;;;;;;;;;;;;20.42;56.23;102330.09;1036004;28;697;-68
2022/08/07 04:11:00;;;;;;;;;;;;;;;20.39;56.14;102328.50;1036447;28;653;-66
2022/08/07 04:11:50;;;;;;;;;;;;;;;20.37;55.90;102330.47;1036463;28;689;-67
2022/08/07 04:12:40;;;;;;;;;;;;;;;20.32;56.84;102326.38;1036397;28;716;-67
2022/08/07 04:13:31;;;;;;;;;;;;;;;20.29;56.04;102322.06;1036436;28;681;-66
2022/08/07 04:14:21;;;;;;;;;;;;;;;20.34;56.16;102325.28;1036587;28;636;-66
2022/08/07 04:15:12;;;;;;;;;;;;;;;20.34;56.58;102325.28;1037138;28;637;-66
2022/08/07 04:16:02;;;;;;;;;;;;;;;20.36;56.20;102336.88;1034418;28;1914;-66
2022/08/07 04:16:53;;;;;;;;;;;;;;;20.37;56.06;102329.63;1033150;28;671;-66
2022/08/07 04:17:43;;;;;;;;;;;;;;;20.34;56.13;102327.13;1033150;28;669;-66
2022/08/07 04:18:33;;;;;;;;;;;;;;;20.37;55.86;102325.06;1033203;28;678;-67
2022/08/07 04:19:25;;;;;;;;;;;;;;;20.35;56.26;102327.00;1033177;28;622;-67
2022/08/07 04:20:16;;;;;;;;;;;;;;;20.33;56.11;102318.13;1033654;28;701;-66
2022/08/07 04:21:06;;;;;;;;;;;;;;;20.34;55.95;102329.81;1034180;28;665;-66
2022/08/07 04:21:56;;;;;;;;;;;;;;;20.30;56.09;102322.94;1033199;28;645;-66
2022/08/07 04:22:48;;;;;;;;;;;;;;;20.30;56.22;102323.81;1033075;28;622;-67
2022/08/07 04:23:39;;;;;;;;;;;;;;;20.30;55.99;102312.97;1033623;28;661;-65
2022/08/07 04:24:29;;;;;;;;;;;;;;;20.30;56.61;102321.09;1033050;28;661;-66
2022/08/07 04:25:19;;;;;;;;;;;;;;;20.28;56.59;102323.06;1033084;28;741;-66
2022/08/07 04:26:10;;;;;;;;;;;;;;;20.28;56.28;102327.63;1033088;28;646;-66